Time;durP1;ratioP1;P1;durP2;ratioP2;P2;SDS_P1;SDS_P2;PMS_P1;PMS_P2;Temp;Humidity;BMP_temperature;BMP_pressure;BME280_temperature;BME280_humidity;BME280_pressure;Samples;Min_cycle;Max_cycle;Signal;HPM_P1;HPM_P2
2022/10/01 00:01:08;;;;;;;13.68;7.20;;;;;;;20.76;64.50;97933.22;4424372;32;20112;-83
2022/10/01 00:03:36;;;;;;;16.73;8.57;;;;;;;20.33;65.91;97936.00;4424700;32;20124;-83
2022/10/01 00:06:12;;;;;;;14.60;7.62;;;;;;;20.16;66.92;97937.41;4424100;32;20102;-83
2022/10/01 00:08:41;;;;;;;15.45;7.50;;;;;;;19.20;70.43;97935.59;4424723;32;20085;-84
2022/10/01 00:11:14;;;;;;;15.85;8.18;;;;;;;20.08;67.48;97945.06;4424619;32;20150;-84
2022/10/01 00:13:42;;;;;;;13.62;6.62;;;;;;;20.20;67.15;97937.03;4424321;32;20476;-83
2022/10/01 00:16:15;;;;;;;13.80;6.82;;;;;;;20.21;66.59;97924.78;4410532;32;20125;-83
2022/10/01 00:18:44;;;;;;;19.65;7.87;;;;;;;19.49;69.49;97914.13;4424675;32;20148;-83
2022/10/01 00:21:14;;;;;;;26.92;7.93;;;;;;;19.10;71.53;97908.53;4424104;32;20123;-83
2022/10/01 00:23:41;;;;;;;14.20;7.28;;;;;;;18.93;72.30;97893.34;4410716;32;20119;-83
2022/10/01 00:26:14;;;;;;;13.80;6.85;;;;;;;18.92;72.84;97889.87;4424123;32;20093;-83
2022/10/01 00:28:42;;;;;;;14.80;7.37;;;;;;;16.98;81.20;97890.56;4424191;32;20085;-83
2022/10/01 00:31:10;;;;;;;16.35;8.27;;;;;;;17.19;82.12;97889.03;4424115;32;20140;-83
2022/10/01 00:33:37;;;;;;;25.23;8.88;;;;;;;17.50;80.18;97886.81;4424345;32;20105;-83
2022/10/01 00:36:06;;;;;;;57.65;10.30;;;;;;;16.70;83.88;97870.84;4410049;32;20136;-83
2022/10/01 00:38:33;;;;;;;27.23;8.15;;;;;;;17.98;78.55;97869.31;4424314;32;20119;-83
2022/10/01 00:41:00;;;;;;;26.73;7.82;;;;;;;15.85;87.86;97854.94;4423893;32;20159;-83
2022/10/01 00:43:33;;;;;;;34.15;7.80;;;;;;;14.61;96.25;97856.06;4410511;32;20098;-83
2022/10/01 00:46:10;;;;;;;46.37;9.57;;;;;;;14.69;96.86;97861.63;4424069;32;20502;-83
2022/10/01 00:48:57;;;;;;;55.83;10.60;;;;;;;15.06;95.40;97867.91;4423995;32;20457;-84
2022/10/01 00:51:31;;;;;;;55.50;10.50;;;;;;;14.81;97.35;97866.03;4424106;32;20078;-83
2022/10/01 00:54:09;;;;;;;95.80;12.48;;;;;;;14.75;96.81;97861.22;4425580;32;20102;-83
2022/10/01 00:56:37;;;;;;;78.35;11.77;;;;;;;15.30;94.04;97863.72;4425759;32;20165;-83
2022/10/01 00:59:05;;;;;;;82.30;12.85;;;;;;;15.50;94.27;97872.00;4412464;32;20094;-83
2022/10/01 01:01:35;;;;;;;48.55;8.80;;;;;;;15.46;93.62;97866.19;4412222;32;20077;-83
2022/10/01 01:04:15;;;;;;;140.57;15.02;;;;;;;15.39;93.28;97866.66;4412135;32;20101;-83
2022/10/01 01:06:47;;;;;;;131.87;14.23;;;;;;;15.99;91.37;97874.00;4425959;32;20618;-83
2022/10/01 01:09:13;;;;;;;193.95;17.37;;;;;;;16.60;88.63;97870.62;4425768;32;20100;-83
2022/10/01 01:12:19;;;;;;;209.73;13.73;;;;;;;17.21;84.12;97868.06;4426016;32;20089;-83
2022/10/01 01:15:01;;;;;;;129.32;12.93;;;;;;;18.35;80.06;97880.38;4378145;32;20091;-83
2022/10/01 01:17:37;;;;;;;39.70;9.68;;;;;;;18.98;77.00;97878.94;4421189;32;20098;-83
2022/10/01 01:20:04;;;;;;;59.85;9.70;;;;;;;17.88;80.43;97861.34;4426034;32;20089;-83
2022/10/01 01:22:34;;;;;;;42.90;9.30;;;;;;;17.85;80.07;97866.78;4425813;32;20112;-84
2022/10/01 01:25:15;;;;;;;33.03;8.90;;;;;;;18.71;76.40;97862.81;4411763;32;20170;-83
2022/10/01 01:27:57;;;;;;;18.75;8.05;;;;;;;17.97;78.82;97854.59;4412200;32;20156;-83
2022/10/01 01:30:25;;;;;;;29.65;8.05;;;;;;;18.69;76.55;97846.44;4425700;32;20097;-83
2022/10/01 01:33:01;;;;;;;32.50;8.48;;;;;;;18.49;76.73;97834.91;4425895;32;20451;-83
2022/10/01 01:35:36;;;;;;;19.85;8.60;;;;;;;18.65;76.71;97840.62;4412456;32;20106;-83
2022/10/01 01:38:13;;;;;;;14.70;8.35;;;;;;;18.49;77.36;97842.75;4399332;32;20090;-83
2022/10/01 01:40:42;;;;;;;81.53;9.93;;;;;;;18.95;75.46;97847.84;4412323;32;20090;-83
2022/10/01 01:43:12;;;;;;;76.03;8.80;;;;;;;18.01;78.42;97847.38;4411918;32;20151;-83
2022/10/01 01:45:40;;;;;;;75.15;9.32;;;;;;;16.84;84.14;97843.81;4411707;32;20109;-83
2022/10/01 01:48:08;;;;;;;192.20;14.93;;;;;;;16.66;86.32;97843.31;4425864;32;20118;-83
2022/10/01 01:50:43;;;;;;;133.85;12.60;;;;;;;17.84;80.09;97844.25;4425847;32;20090;-83
2022/10/01 01:53:10;;;;;;;131.52;13.88;;;;;;;17.08;83.13;97852.47;4411751;32;20436;-83
2022/10/01 01:55:37;;;;;;;106.25;11.20;;;;;;;16.73;85.55;97863.66;4425523;32;20093;-83
2022/10/01 01:58:05;;;;;;;37.92;9.88;;;;;;;17.42;82.46;97847.41;4411932;32;20090;-83
2022/10/01 02:00:31;;;;;;;45.10;11.25;;;;;;;16.58;87.23;97841.22;4425485;32;20093;-83
2022/10/01 02:02:58;;;;;;;31.35;10.93;;;;;;;16.19;88.77;97847.44;4425626;32;20441;-83
2022/10/01 02:05:28;;;;;;;20.67;11.27;;;;;;;17.28;84.15;97851.03;4425098;32;20165;-83
2022/10/01 02:08:13;;;;;;;21.80;11.63;;;;;;;15.55;92.39;97838.75;4425830;32;20112;-83
2022/10/01 02:10:58;;;;;;;25.05;11.10;;;;;;;15.99;89.92;97835.78;4425737;32;20104;-83
2022/10/01 02:13:37;;;;;;;23.40;11.77;;;;;;;17.08;85.22;97849.88;4425385;32;20500;-83
2022/10/01 02:16:25;;;;;;;21.35;11.40;;;;;;;17.70;82.62;97862.72;4425281;32;20108;-83
2022/10/01 02:19:21;;;;;;;19.75;10.95;;;;;;;17.64;81.87;97858.75;4425475;32;20086;-83
2022/10/01 02:21:59;;;;;;;22.45;11.38;;;;;;;17.61;81.75;97869.41;4425581;32;20081;-83
2022/10/01 02:24:47;;;;;;;19.60;10.43;;;;;;;17.61;81.28;97876.41;4425565;32;20086;-83
2022/10/01 02:27:28;;;;;;;19.40;10.40;;;;;;;18.07;79.83;97879.03;4411498;32;20124;-83
2022/10/01 02:29:57;;;;;;;21.95;11.25;;;;;;;16.65;86.37;97872.91;4425487;32;20198;-83
2022/10/01 02:32:25;;;;;;;23.40;11.55;;;;;;;16.73;86.22;97881.87;4408904;32;20082;-83
2022/10/01 02:34:53;;;;;;;18.60;10.38;;;;;;;16.88;85.83;97874.75;4408696;32;20112;-83
2022/10/01 02:37:23;;;;;;;19.62;11.38;;;;;;;17.63;81.62;97872.72;4410080;32;20140;-83
2022/10/01 02:39:52;;;;;;;18.00;9.80;;;;;;;18.70;77.30;97880.28;4410155;32;20109;-83
2022/10/01 02:42:20;;;;;;;22.55;10.88;;;;;;;18.66;76.28;97875.44;4409766;32;20233;-84
2022/10/01 02:44:48;;;;;;;16.50;8.93;;;;;;;18.94;75.87;97881.94;4408924;32;20086;-83
2022/10/01 02:47:49;;;;;;;17.83;10.27;;;;;;;19.53;72.95;97873.66;4409878;32;20110;-83
2022/10/01 02:50:16;;;;;;;17.48;10.00;;;;;;;19.14;74.60;97875.97;4384693;32;20090;-83
2022/10/01 02:52:52;;;;;;;16.85;9.55;;;;;;;18.79;75.33;97874.34;4410221;32;20091;-83
2022/10/01 02:55:27;;;;;;;16.67;9.98;;;;;;;18.70;76.12;97861.16;4408464;32;20086;-83
2022/10/01 02:57:55;;;;;;;18.23;10.35;;;;;;;19.45;72.60;97868.22;4410205;32;20153;-83
2022/10/01 03:00:24;;;;;;;17.35;9.35;;;;;;;19.18;73.75;97873.91;4408863;32;20110;-83
2022/10/01 03:02:50;;;;;;;16.75;9.68;;;;;;;18.57;76.62;97878.72;4409614;32;20656;-83
2022/10/01 03:05:19;;;;;;;17.35;9.93;;;;;;;18.85;74.90;97885.28;4409914;32;20090;-83
2022/10/01 03:07:47;;;;;;;18.25;9.73;;;;;;;20.18;69.47;97904.87;4410096;32;20098;-83
2022/10/01 03:10:15;;;;;;;16.35;9.13;;;;;;;20.19;69.51;97901.28;4409639;32;20535;-83
2022/10/01 03:12:44;;;;;;;17.23;10.05;;;;;;;19.88;70.32;97887.34;4409952;32;20132;-83
2022/10/01 03:15:15;;;;;;;17.92;9.80;;;;;;;19.74;71.66;97886.81;4409399;32;20101;-83
2022/10/01 03:17:42;;;;;;;16.92;9.82;;;;;;;19.59;71.42;97887.13;4408610;32;20121;-83
2022/10/01 03:20:10;;;;;;;15.65;9.75;;;;;;;19.41;72.72;97890.37;4409946;32;20106;-83
2022/10/01 03:22:37;;;;;;;16.30;9.43;;;;;;;19.90;69.97;97881.97;4409491;32;20339;-83
2022/10/01 03:25:04;;;;;;;16.05;9.63;;;;;;;19.30;72.50;97878.97;4409919;32;20105;-83
2022/10/01 03:27:31;;;;;;;16.15;9.10;;;;;;;18.18;76.61;97871.25;4409860;32;20102;-83
2022/10/01 03:29:58;;;;;;;16.45;9.57;;;;;;;16.87;83.82;97867.87;4409600;32;20094;-83
2022/10/01 03:32:25;;;;;;;19.23;10.18;;;;;;;17.74;80.68;97865.91;4422289;32;20150;-83
2022/10/01 03:34:52;;;;;;;16.20;9.48;;;;;;;18.58;76.77;97859.47;4424861;32;20158;-83
2022/10/01 03:37:19;;;;;;;17.60;9.73;;;;;;;18.70;76.28;97863.78;4411020;32;20168;-83
2022/10/01 03:39:46;;;;;;;15.25;8.57;;;;;;;18.75;75.99;97862.47;4425103;32;20116;-84
2022/10/01 03:42:14;;;;;;;17.08;9.57;;;;;;;18.87;74.70;97867.69;4411149;32;20105;-83
2022/10/01 03:44:41;;;;;;;15.95;8.93;;;;;;;19.07;74.57;97875.59;4424513;32;20073;-83
2022/10/01 03:47:08;;;;;;;15.80;8.90;;;;;;;19.58;72.73;97876.78;4411085;32;20120;-83
2022/10/01 03:49:36;;;;;;;14.85;8.52;;;;;;;19.91;71.04;97876.59;4425002;32;20151;-83
2022/10/01 03:52:05;;;;;;;18.77;9.48;;;;;;;20.98;65.60;97884.97;4410816;32;20437;-83
2022/10/01 03:54:32;;;;;;;16.70;8.68;;;;;;;20.21;68.37;97881.06;4424744;32;20078;-83
2022/10/01 03:56:59;;;;;;;18.00;9.77;;;;;;;19.82;69.82;97868.69;4424895;32;20125;-83
2022/10/01 03:59:26;;;;;;;17.77;10.15;;;;;;;18.71;74.31;97870.66;4424448;32;20150;-83
2022/10/01 04:01:53;;;;;;;18.30;9.20;;;;;;;18.84;74.20;97870.56;4410865;32;20479;-83
2022/10/01 04:04:20;;;;;;;18.58;9.85;;;;;;;19.30;72.18;97867.69;4424609;32;20082;-84
2022/10/01 04:06:47;;;;;;;17.23;9.32;;;;;;;19.62;70.99;97875.56;4410544;32;20093;-84
2022/10/01 04:09:14;;;;;;;15.73;9.13;;;;;;;19.20;72.12;97872.00;4424706;32;20112;-83
2022/10/01 04:11:41;;;;;;;15.15;8.35;;;;;;;19.08;73.50;97865.97;4424376;32;20105;-83
2022/10/01 04:14:08;;;;;;;16.95;9.63;;;;;;;19.02;73.42;97867.28;4424515;32;20416;-83
2022/10/01 04:16:35;;;;;;;17.55;9.93;;;;;;;19.13;73.34;97882.13;4424538;32;20097;-83
2022/10/01 04:19:03;;;;;;;19.60;10.38;;;;;;;18.96;74.14;97883.47;4424284;32;20120;-83
2022/10/01 04:21:30;;;;;;;16.35;8.93;;;;;;;18.40;75.68;97882.66;4424536;32;20143;-83
2022/10/01 04:23:58;;;;;;;18.75;9.25;;;;;;;18.70;74.87;97877.66;4410476;32;20149;-83
2022/10/01 04:26:25;;;;;;;17.25;8.75;;;;;;;18.71;74.12;97881.13;4424151;32;20121;-83
2022/10/01 04:28:52;;;;;;;17.08;9.55;;;;;;;18.46;75.65;97875.16;4425678;32;20439;-83
2022/10/01 04:31:25;;;;;;;16.83;9.57;;;;;;;18.54;75.62;97876.34;4426055;32;20078;-83
2022/10/01 04:33:55;;;;;;;16.02;8.90;;;;;;;19.19;72.41;97884.25;4426025;32;20146;-83
2022/10/01 04:36:23;;;;;;;19.67;10.45;;;;;;;18.92;73.56;97874.19;4426339;32;20105;-83
2022/10/01 04:38:54;;;;;;;18.27;9.88;;;;;;;18.51;76.01;97874.81;4426301;32;20097;-83
2022/10/01 04:41:29;;;;;;;18.15;10.00;;;;;;;19.11;73.51;97881.41;4425918;32;20108;-83
2022/10/01 04:43:58;;;;;;;18.95;10.25;;;;;;;19.18;73.62;97882.59;4426198;32;20151;-83
2022/10/01 04:46:27;;;;;;;18.20;10.15;;;;;;;17.90;78.58;97876.88;4426103;32;20097;-83
2022/10/01 04:48:54;;;;;;;20.83;11.10;;;;;;;18.92;75.51;97879.44;4425947;32;20108;-83
2022/10/01 04:51:21;;;;;;;19.58;10.23;;;;;;;19.01;75.47;97880.47;4426200;32;20085;-83
2022/10/01 04:53:48;;;;;;;21.55;11.10;;;;;;;18.21;78.04;97873.63;4425767;32;20085;-83
2022/10/01 04:56:15;;;;;;;21.10;12.37;;;;;;;17.72;81.28;97879.09;4426099;32;20093;-83
2022/10/01 04:58:42;;;;;;;21.95;12.18;;;;;;;16.98;85.44;97875.75;4426139;32;20119;-83
2022/10/01 05:01:09;;;;;;;22.67;12.77;;;;;;;17.12;85.73;97882.59;4425753;32;20158;-83
2022/10/01 05:03:36;;;;;;;22.00;11.50;;;;;;;17.13;85.81;97880.84;4426078;32;20094;-83
2022/10/01 05:06:03;;;;;;;20.95;11.38;;;;;;;17.85;81.91;97884.22;4425868;32;20105;-83
2022/10/01 05:08:30;;;;;;;20.77;11.20;;;;;;;17.33;84.96;97888.88;4425902;32;20097;-83
2022/10/01 05:10:59;;;;;;;24.30;11.65;;;;;;;18.81;78.61;97892.50;4426133;32;20100;-83
2022/10/01 05:13:28;;;;;;;20.65;11.45;;;;;;;19.08;76.96;97894.75;4426070;32;20120;-83
2022/10/01 05:15:57;;;;;;;19.80;11.27;;;;;;;18.67;77.77;97896.22;4411686;32;20118;-83
2022/10/01 05:18:24;;;;;;;18.55;10.35;;;;;;;19.29;74.72;97895.63;4426126;32;20144;-83
2022/10/01 05:20:51;;;;;;;19.05;10.00;;;;;;;19.44;74.05;97900.56;4425992;32;20139;-83
2022/10/01 05:23:18;;;;;;;17.90;9.38;;;;;;;19.47;73.64;97890.72;4425544;32;20086;-83
2022/10/01 05:25:45;;;;;;;18.42;9.45;;;;;;;18.88;76.26;97867.56;4425797;32;20102;-83
2022/10/01 05:28:13;;;;;;;16.90;9.57;;;;;;;18.53;76.82;97864.25;4426012;32;20143;-84
2022/10/01 05:30:46;;;;;;;17.67;9.52;;;;;;;19.27;74.54;97876.63;4412392;32;20514;-83
2022/10/01 05:33:13;;;;;;;18.75;9.85;;;;;;;19.14;75.47;97880.31;4426124;32;20538;-83
2022/10/01 05:35:40;;;;;;;19.37;9.77;;;;;;;18.85;75.96;97886.09;4425359;32;20101;-83
2022/10/01 05:38:07;;;;;;;21.25;10.77;;;;;;;17.30;83.89;97883.88;4425778;32;20102;-84
2022/10/01 05:40:34;;;;;;;20.52;10.55;;;;;;;17.47;84.03;97876.59;4425804;32;20143;-83
2022/10/01 05:43:04;;;;;;;20.62;10.63;;;;;;;18.81;77.74;97879.44;4411621;32;20094;-83
2022/10/01 05:45:31;;;;;;;21.20;11.43;;;;;;;18.88;77.01;97878.03;4425568;32;20106;-83
2022/10/01 05:48:03;;;;;;;22.37;11.35;;;;;;;19.37;74.79;97869.69;4426032;32;20163;-83
2022/10/01 05:50:31;;;;;;;22.20;12.13;;;;;;;19.36;74.82;97862.81;4425545;32;20085;-84
2022/10/01 05:52:59;;;;;;;21.20;12.13;;;;;;;18.80;76.53;97856.88;4425819;32;20078;-83
2022/10/01 05:55:32;;;;;;;23.30;11.90;;;;;;;18.84;76.64;97857.47;4425472;32;20117;-83
2022/10/01 05:58:01;;;;;;;27.52;12.57;;;;;;;17.64;82.23;97858.75;4425523;32;20139;-83
2022/10/01 06:00:29;;;;;;;24.63;12.75;;;;;;;18.35;80.70;97875.16;4425680;32;20085;-83
2022/10/01 06:03:00;;;;;;;24.23;12.32;;;;;;;18.59;79.42;97875.03;4411885;32;20404;-83
2022/10/01 06:05:27;;;;;;;23.33;11.77;;;;;;;18.65;79.39;97868.53;4411428;32;20479;-83
2022/10/01 06:07:55;;;;;;;26.60;12.60;;;;;;;18.47;79.36;97865.53;4425802;32;20098;-83
2022/10/01 06:10:22;;;;;;;23.95;10.57;;;;;;;19.62;75.55;97867.72;4411995;32;20094;-83
2022/10/01 06:12:50;;;;;;;30.60;12.05;;;;;;;19.76;74.72;97877.88;4425361;32;20113;-84
2022/10/01 06:15:17;;;;;;;26.80;12.75;;;;;;;17.99;81.89;97870.97;4425429;32;20106;-83
2022/10/01 06:17:44;;;;;;;29.42;13.95;;;;;;;18.39;80.77;97868.75;4425702;32;20101;-83
2022/10/01 06:20:16;;;;;;;31.27;12.75;;;;;;;16.93;87.69;97872.66;4425601;32;20100;-83
2022/10/01 06:22:43;;;;;;;25.73;11.88;;;;;;;17.40;85.65;97873.59;4411805;32;20078;-83
2022/10/01 06:25:12;;;;;;;31.67;13.85;;;;;;;18.04;83.66;97878.44;4424966;32;20112;-83
2022/10/01 06:27:39;;;;;;;54.17;14.05;;;;;;;17.90;83.91;97862.06;4411824;32;20105;-83
2022/10/01 06:30:06;;;;;;;48.58;15.02;;;;;;;17.68;85.76;97866.37;4425544;32;20078;-83
2022/10/01 06:32:33;;;;;;;77.30;14.77;;;;;;;17.68;85.04;97868.97;4424962;32;20082;-83
2022/10/01 06:35:01;;;;;;;62.25;14.40;;;;;;;18.93;79.69;97867.22;4425347;32;20132;-83
2022/10/01 06:37:28;;;;;;;64.12;14.50;;;;;;;19.35;77.14;97855.91;4425514;32;20101;-83
2022/10/01 06:39:55;;;;;;;46.45;13.62;;;;;;;18.94;78.68;97861.03;4425039;32;20093;-84
2022/10/01 06:42:22;;;;;;;37.40;14.20;;;;;;;19.48;77.12;97853.13;4425468;32;20082;-83
2022/10/01 06:44:49;;;;;;;37.05;13.65;;;;;;;20.19;74.85;97854.16;4425219;32;20102;-83
2022/10/01 06:47:16;;;;;;;38.28;13.57;;;;;;;21.18;70.31;97863.06;4411362;32;20162;-84
2022/10/01 06:49:43;;;;;;;46.22;14.25;;;;;;;22.27;64.20;97864.53;4425177;32;20094;-83
2022/10/01 06:55:00;;;;;;;27.85;12.48;;;;;;;21.86;66.37;97860.44;4413238;32;20224;-84
2022/10/01 06:57:27;;;;;;;27.08;12.13;;;;;;;20.39;73.06;97865.53;4425639;32;20109;-84
2022/10/01 06:59:54;;;;;;;27.85;13.07;;;;;;;20.71;71.79;97859.34;4425073;32;20147;-84
2022/10/01 07:02:27;;;;;;;35.78;15.65;;;;;;;20.57;72.66;97859.72;4425368;32;20108;-84
2022/10/01 07:04:58;;;;;;;31.73;14.07;;;;;;;21.13;70.04;97844.25;4425196;32;20162;-83
2022/10/01 07:07:29;;;;;;;25.23;11.90;;;;;;;20.71;72.23;97869.84;4424876;32;20093;-83
2022/10/01 07:09:57;;;;;;;31.30;13.38;;;;;;;20.91;71.76;97876.81;4399129;32;20085;-83
2022/10/01 07:12:25;;;;;;;26.52;12.40;;;;;;;21.65;68.74;97886.88;4425231;32;20082;-84
2022/10/01 07:14:53;;;;;;;24.80;11.73;;;;;;;21.61;67.91;97888.13;4424802;32;20101;-84
2022/10/01 07:17:20;;;;;;;23.75;11.73;;;;;;;21.05;70.59;97878.22;4425302;32;20113;-83
2022/10/01 07:19:47;;;;;;;24.77;12.20;;;;;;;20.14;75.00;97872.06;4425229;32;20421;-83
2022/10/01 07:22:14;;;;;;;23.73;11.55;;;;;;;20.92;71.92;97867.97;4424778;32;20089;-84
2022/10/01 07:24:42;;;;;;;22.40;11.10;;;;;;;20.97;72.13;97865.78;4411279;32;20125;-83
2022/10/01 07:27:09;;;;;;;29.60;12.93;;;;;;;21.75;68.41;97865.84;4411381;32;20110;-84
2022/10/01 07:29:36;;;;;;;28.08;13.00;;;;;;;21.03;71.85;97857.38;4425030;32;20139;-84
2022/10/01 07:32:07;;;;;;;35.75;17.20;;;;;;;20.75;73.12;97842.41;4424686;32;20105;-84
2022/10/01 07:34:36;;;;;;;27.17;13.60;;;;;;;21.20;72.25;97844.56;4425017;32;20168;-83
2022/10/01 07:37:03;;;;;;;25.27;13.27;;;;;;;20.76;73.54;97850.16;4424751;32;20116;-84
2022/10/01 07:39:29;;;;;;;19.62;10.35;;;;;;;22.00;69.33;97854.75;4424935;32;20101;-84
2022/10/01 07:41:57;;;;;;;19.87;9.52;;;;;;;22.44;66.47;97858.53;4411308;32;20339;-84
2022/10/01 07:44:26;;;;;;;21.50;9.70;;;;;;;22.01;68.33;97856.44;4424756;32;20096;-84
2022/10/01 07:46:53;;;;;;;19.83;9.65;;;;;;;21.62;69.68;97843.34;4399064;32;20167;-83
2022/10/01 07:49:20;;;;;;;18.67;9.52;;;;;;;21.84;69.32;97844.84;4424575;32;20144;-84
2022/10/01 07:51:47;;;;;;;18.20;9.23;;;;;;;21.70;70.23;97844.44;4398700;32;20112;-84
2022/10/01 07:54:15;;;;;;;20.62;10.25;;;;;;;21.76;69.76;97841.25;4424871;32;20113;-83
2022/10/01 07:56:41;;;;;;;20.90;9.50;;;;;;;20.82;73.45;97834.81;4424505;32;20108;-84
2022/10/01 07:59:09;;;;;;;22.27;11.32;;;;;;;20.71;74.36;97825.28;4424921;32;20082;-84
2022/10/01 08:01:36;;;;;;;20.90;10.45;;;;;;;21.43;72.11;97819.72;4424614;32;20104;-84
2022/10/01 08:05:16;;;;;;;21.30;10.77;;;;;;;22.49;68.05;97819.47;4424203;32;20101;-83
2022/10/01 08:06:52;;;;;;;17.27;8.98;;;;;;;21.69;71.12;97821.75;4413117;32;20097;-84
2022/10/01 08:09:19;;;;;;;13.73;7.30;;;;;;;23.00;67.07;97828.66;4424816;32;20089;-84
2022/10/01 08:11:47;;;;;;;15.18;6.82;;;;;;;23.61;64.56;97835.00;4410719;32;20100;-84
2022/10/01 08:14:15;;;;;;;12.77;6.07;;;;;;;23.62;65.15;97839.28;4424708;32;20106;-84
2022/10/01 08:16:42;;;;;;;12.63;6.37;;;;;;;23.65;64.10;97842.44;4424633;32;20195;-84
2022/10/01 08:19:08;;;;;;;12.70;5.97;;;;;;;23.31;65.54;97842.28;4424256;32;20090;-84
2022/10/01 08:21:35;;;;;;;11.45;5.55;;;;;;;23.04;68.09;97843.16;4425060;32;20086;-83
2022/10/01 08:24:03;;;;;;;9.93;4.70;;;;;;;22.84;69.79;97838.16;4424531;32;20133;-84
2022/10/01 08:26:30;;;;;;;12.35;5.10;;;;;;;22.62;68.61;97836.72;4424416;32;20105;-84
2022/10/01 08:28:58;;;;;;;12.77;5.03;;;;;;;22.70;69.32;97848.16;4410594;32;20523;-84
2022/10/01 08:31:25;;;;;;;12.65;5.55;;;;;;;22.27;70.62;97840.88;4407450;32;20113;-84
2022/10/01 08:33:52;;;;;;;11.30;5.68;;;;;;;22.31;71.84;97838.78;4409115;32;20086;-84
2022/10/01 08:36:19;;;;;;;12.65;6.30;;;;;;;22.12;71.31;97843.16;4408997;32;20089;-84
2022/10/01 08:38:47;;;;;;;13.73;6.00;;;;;;;22.53;69.97;97843.66;4408688;32;20093;-85
2022/10/01 08:41:33;;;;;;;10.98;5.53;;;;;;;21.76;74.39;97841.25;4407824;32;20105;-84
2022/10/01 08:44:01;;;;;;;11.63;5.78;;;;;;;21.38;74.99;97842.94;4407718;32;20464;-84
2022/10/01 08:46:30;;;;;;;11.88;5.57;;;;;;;21.98;73.08;97842.72;4407395;32;20105;-84
2022/10/01 08:49:15;;;;;;;11.73;5.57;;;;;;;21.68;74.27;97847.19;4408908;32;20104;-85
2022/10/01 08:51:51;;;;;;;13.77;6.20;;;;;;;22.13;73.19;97842.19;4408967;32;20101;-84
2022/10/01 08:54:27;;;;;;;12.25;6.43;;;;;;;21.99;73.50;97836.50;4408581;32;20106;-84
2022/10/01 08:56:56;;;;;;;12.63;5.97;;;;;;;21.89;73.69;97832.09;4407672;32;20539;-84
2022/10/01 08:59:44;;;;;;;14.68;6.70;;;;;;;22.01;74.58;97829.31;4407305;32;20097;-84
2022/10/01 09:02:22;;;;;;;13.73;7.03;;;;;;;21.50;76.24;97833.97;4407695;32;20192;-84
2022/10/01 09:04:56;;;;;;;13.75;6.45;;;;;;;22.11;74.31;97817.81;4408568;32;20098;-84
2022/10/01 09:07:46;;;;;;;13.20;5.70;;;;;;;22.07;73.84;97816.47;4407152;32;20102;-84
2022/10/01 09:10:36;;;;;;;11.88;5.90;;;;;;;22.25;71.98;97810.47;4408781;32;20390;-84
2022/10/01 09:13:38;;;;;;;13.20;5.55;;;;;;;21.68;75.35;97820.94;4408659;32;20086;-84
2022/10/01 09:16:11;;;;;;;12.00;5.30;;;;;;;21.27;77.51;97811.59;4409407;32;20102;-84
2022/10/01 09:18:57;;;;;;;12.90;5.47;;;;;;;20.72;80.85;97819.06;4409685;32;20137;-84
2022/10/01 09:21:42;;;;;;;11.40;4.93;;;;;;;21.39;79.12;97826.22;4410446;32;20109;-84
2022/10/01 09:24:15;;;;;;;9.75;4.32;;;;;;;21.47;78.80;97820.28;4410623;32;20082;-84
2022/10/01 09:26:47;;;;;;;9.73;3.87;;;;;;;21.89;77.68;97811.09;4409539;32;20137;-84
2022/10/01 09:29:38;;;;;;;9.02;4.10;;;;;;;22.33;75.02;97816.66;4410413;32;20434;-84
2022/10/01 09:32:05;;;;;;;7.85;3.53;;;;;;;22.77;71.83;97819.50;4409396;32;20104;-84
2022/10/01 09:34:42;;;;;;;10.02;3.95;;;;;;;22.37;74.15;97810.12;4410296;32;20555;-84
2022/10/01 09:37:31;;;;;;;9.50;3.65;;;;;;;22.93;72.34;97813.59;4409543;32;20101;-85
2022/10/01 09:40:19;;;;;;;7.65;3.05;;;;;;;23.41;71.66;97805.34;4409987;32;20458;-84
2022/10/01 09:42:49;;;;;;;6.40;3.10;;;;;;;22.95;70.05;97801.94;4410338;32;20459;-85
2022/10/01 09:45:19;;;;;;;6.80;2.92;;;;;;;23.27;71.18;97806.69;4409348;32;20082;-85
2022/10/01 09:47:50;;;;;;;8.02;3.20;;;;;;;23.40;69.41;97800.22;4410994;32;20163;-84
2022/10/01 09:50:24;;;;;;;7.50;2.92;;;;;;;23.29;70.98;97809.19;4410861;32;20113;-84
2022/10/01 09:52:51;;;;;;;7.35;3.30;;;;;;;23.77;69.18;97821.94;4410646;32;20086;-84
2022/10/01 09:55:28;;;;;;;9.85;3.05;;;;;;;23.02;71.03;97820.59;4409141;32;20152;-85
2022/10/01 09:58:17;;;;;;;9.13;3.42;;;;;;;23.29;69.39;97815.28;4411104;32;20101;-85
2022/10/01 10:00:47;;;;;;;7.60;2.90;;;;;;;23.21;69.21;97809.09;4409597;32;20816;-84
2022/10/01 10:03:29;;;;;;;7.25;2.90;;;;;;;23.95;68.36;97801.66;4409364;32;20421;-85
2022/10/01 10:05:58;;;;;;;6.45;2.72;;;;;;;24.28;66.32;97803.63;4409803;32;20086;-84
2022/10/01 10:08:27;;;;;;;7.47;2.83;;;;;;;24.08;67.84;97798.59;4410910;32;20467;-84
2022/10/01 10:11:02;;;;;;;5.60;2.17;;;;;;;24.12;65.89;97801.72;4410330;32;20116;-85
2022/10/01 10:13:34;;;;;;;6.78;2.87;;;;;;;24.06;67.15;97802.38;4409958;32;20108;-84
2022/10/01 10:16:23;;;;;;;4.75;2.40;;;;;;;23.51;67.81;97792.91;4410632;32;20124;-85
2022/10/01 10:19:11;;;;;;;6.72;2.60;;;;;;;24.16;66.91;97787.28;4411814;32;20102;-84
2022/10/01 10:21:51;;;;;;;5.70;2.55;;;;;;;24.18;66.44;97791.41;4412197;32;20444;-84
2022/10/01 10:24:29;;;;;;;5.55;2.78;;;;;;;24.30;64.84;97786.66;4412720;32;20094;-85
2022/10/01 10:26:58;;;;;;;7.10;3.10;;;;;;;24.20;65.65;97781.50;4411421;32;20090;-85
2022/10/01 10:29:36;;;;;;;7.85;2.80;;;;;;;24.08;66.92;97771.41;4412387;32;20112;-84
2022/10/01 10:32:35;;;;;;;7.28;2.87;;;;;;;24.43;65.96;97773.06;4411051;32;20134;-85
2022/10/01 10:35:08;;;;;;;6.05;2.80;;;;;;;25.45;61.60;97762.22;4395884;32;20104;-85
2022/10/01 10:37:36;;;;;;;7.05;2.78;;;;;;;25.33;60.70;97763.56;4411216;32;20156;-85
2022/10/01 10:40:06;;;;;;;7.07;3.12;;;;;;;25.40;62.95;97767.16;4410964;32;20125;-84
2022/10/01 10:42:36;;;;;;;7.50;2.70;;;;;;;25.81;61.89;97754.75;4411084;32;20167;-85
2022/10/01 10:45:13;;;;;;;5.47;2.15;;;;;;;25.98;61.26;97741.53;4412556;32;20090;-85
2022/10/01 10:47:46;;;;;;;5.05;2.50;;;;;;;25.59;61.07;97736.94;4415667;32;20066;-85
2022/10/01 10:50:34;;;;;;;5.80;2.45;;;;;;;25.69;61.86;97742.88;4418357;32;20090;-85
2022/10/01 10:53:20;;;;;;;5.70;2.30;;;;;;;26.46;58.83;97730.75;4417432;32;20113;-85
2022/10/01 10:56:02;;;;;;;6.70;2.03;;;;;;;26.36;59.39;97726.66;4421807;32;20066;-84
2022/10/01 10:58:38;;;;;;;4.20;2.15;;;;;;;25.90;57.95;97713.28;4417891;32;20129;-85
2022/10/01 11:01:15;;;;;;;3.75;1.70;;;;;;;25.91;58.83;97713.13;4419214;32;20080;-84
2022/10/01 11:03:46;;;;;;;3.78;1.83;;;;;;;25.50;59.84;97719.44;4417408;32;20152;-84
2022/10/01 11:06:14;;;;;;;3.42;1.65;;;;;;;25.34;61.54;97707.09;4417406;32;20091;-85
2022/10/01 11:08:41;;;;;;;3.22;1.70;;;;;;;25.33;59.82;97714.22;4418821;32;20105;-85
2022/10/01 11:11:32;;;;;;;4.97;1.90;;;;;;;25.63;59.67;97709.22;4415594;32;20109;-85
2022/10/01 11:14:07;;;;;;;4.18;2.00;;;;;;;25.05;59.59;97704.97;4414712;32;20066;-85
2022/10/01 11:16:52;;;;;;;8.27;2.30;;;;;;;24.55;62.89;97711.12;4416664;32;20067;-84
2022/10/01 11:19:34;;;;;;;4.10;1.95;;;;;;;24.77;62.21;97707.03;4417114;32;20067;-84
2022/10/01 11:22:11;;;;;;;7.30;2.20;;;;;;;24.85;62.31;97712.34;4417718;32;20105;-85
2022/10/01 11:24:59;;;;;;;4.53;1.90;;;;;;;24.69;62.43;97709.69;4418279;32;20106;-85
2022/10/01 11:27:26;;;;;;;3.80;1.83;;;;;;;24.80;62.09;97706.75;4414990;32;20092;-85
2022/10/01 11:30:24;;;;;;;3.58;1.98;;;;;;;24.17;65.09;97707.22;4414330;32;20160;-85
2022/10/01 11:32:55;;;;;;;;;;;;;;;24.05;64.87;97708.47;4401983;32;20492;-85
2022/10/01 11:35:41;;;;;;;6.15;2.50;;;;;;;23.26;67.90;97691.03;4411333;32;20004;-85
2022/10/01 11:38:40;;;;;;;5.78;2.35;;;;;;;22.88;69.88;97690.41;4410853;32;20086;-85
2022/10/01 11:41:28;;;;;;;5.97;2.30;;;;;;;23.44;67.74;97697.09;4408932;32;20082;-85
2022/10/01 11:43:58;;;;;;;5.25;2.45;;;;;;;23.82;66.89;97700.28;4410134;32;20117;-85
2022/10/01 11:46:34;;;;;;;5.75;2.37;;;;;;;23.63;67.96;97696.09;4409788;32;20155;-85
2022/10/01 11:49:18;;;;;;;3.97;2.10;;;;;;;22.88;69.98;97686.97;4410518;32;20184;-85